Time;durP1;ratioP1;P1;durP2;ratioP2;P2;SDS_P1;SDS_P2;PMS_P1;PMS_P2;Temp;Humidity;BMP_temperature;BMP_pressure;BME280_temperature;BME280_humidity;BME280_pressure;Samples;Min_cycle;Max_cycle;Signal;HPM_P1;HPM_P2
2020/12/13 00:01:04;;;;;;;48.08;17.90;;;;;;;;;;5074669;28;20071;-88
2020/12/13 00:03:31;;;;;;;55.78;17.67;;;;;;;;;;5077232;28;20485;-89
2020/12/13 00:06:01;;;;;;;61.40;18.30;;;;;;;;;;5074386;28;20062;-88
2020/12/13 00:08:30;;;;;;;50.13;17.40;;;;;;;;;;5079118;28;20128;-89
2020/12/13 00:10:57;;;;;;;52.10;18.13;;;;;;;;;;5072017;28;20069;-88
2020/12/13 00:13:24;;;;;;;47.65;17.15;;;;;;;;;;5068898;28;20132;-88
2020/12/13 00:15:52;;;;;;;47.17;17.83;;;;;;;;;;5108874;28;20041;-88
2020/12/13 00:18:20;;;;;;;55.17;18.08;;;;;;;;;;5075163;28;20859;-87
2020/12/13 00:20:47;;;;;;;47.50;16.38;;;;;;;;;;5073627;28;20045;-88
2020/12/13 00:23:21;;;;;;;;;;;;;;;;;;5074309;28;20076;-88
2020/12/13 00:25:51;;;;;;;57.30;17.70;;;;;;;;;;5077178;28;19924;-88
2020/12/13 00:28:19;;;;;;;59.55;19.40;;;;;;;;;;5068339;28;20060;-88
2020/12/13 00:30:46;;;;;;;57.85;18.70;;;;;;;;;;5066255;28;20078;-88
2020/12/13 00:33:15;;;;;;;55.90;19.25;;;;;;;;;;5074913;28;20048;-88
2020/12/13 00:35:45;;;;;;;57.83;18.98;;;;;;;;;;5074298;28;20052;-87
2020/12/13 00:38:16;;;;;;;60.60;19.77;;;;;;;;;;5070095;28;20120;-88
2020/12/13 00:40:52;;;;;;;61.88;21.80;;;;;;;;;;5074855;28;20713;-87
2020/12/13 00:43:20;;;;;;;60.72;19.08;;;;;;;;;;5071768;28;20052;-88
2020/12/13 00:45:47;;;;;;;49.53;18.02;;;;;;;;;;5070496;28;20056;-87
2020/12/13 00:48:14;;;;;;;56.60;19.10;;;;;;;;;;5074427;28;20064;-89
2020/12/13 00:50:41;;;;;;;49.80;18.45;;;;;;;;;;5076268;28;20063;-88
2020/12/13 00:53:11;;;;;;;57.95;18.75;;;;;;;;;;5069501;28;20064;-88
2020/12/13 00:55:38;;;;;;;61.65;21.35;;;;;;;;;;5076919;28;20048;-88
2020/12/13 00:58:05;;;;;;;52.78;18.95;;;;;;;;;;5069407;28;20393;-89
2020/12/13 01:00:35;;;;;;;58.78;20.23;;;;;;;;;;5075082;28;20052;-88
2020/12/13 01:03:02;;;;;;;66.80;19.85;;;;;;;;;;5074861;28;20052;-88
2020/12/13 01:05:31;;;;;;;67.40;20.70;;;;;;;;;;5070675;28;20048;-89
2020/12/13 01:08:01;;;;;;;63.33;20.00;;;;;;;;;;5056943;28;20135;-89
2020/12/13 01:10:28;;;;;;;57.85;19.48;;;;;;;;;;5075369;28;20098;-89
2020/12/13 01:13:00;;;;;;;59.38;18.55;;;;;;;;;;5075045;28;20059;-89
2020/12/13 01:15:29;;;;;;;60.65;20.30;;;;;;;;;;5075227;28;20108;-89
2020/12/13 01:17:56;;;;;;;60.55;19.85;;;;;;;;;;5070719;28;20049;-89
2020/12/13 01:20:23;;;;;;;60.35;19.05;;;;;;;;;;5073638;28;20048;-88
2020/12/13 01:22:53;;;;;;;54.63;19.45;;;;;;;;;;5073190;28;20493;-88
2020/12/13 01:25:19;;;;;;;61.55;21.20;;;;;;;;;;5069705;28;20056;-88
2020/12/13 01:27:47;;;;;;;67.78;23.00;;;;;;;;;;5067397;28;20054;-88
2020/12/13 01:30:14;;;;;;;62.83;21.63;;;;;;;;;;5076407;28;20053;-88
2020/12/13 01:32:47;;;;;;;60.70;20.45;;;;;;;;;;5074063;28;20121;-87
2020/12/13 01:35:13;;;;;;;61.60;21.13;;;;;;;;;;5074983;28;20618;-88
2020/12/13 01:37:41;;;;;;;64.28;21.40;;;;;;;;;;5076142;28;20048;-88
2020/12/13 01:40:12;;;;;;;61.95;19.25;;;;;;;;;;5075583;28;20052;-88
2020/12/13 01:42:43;;;;;;;67.80;20.90;;;;;;;;;;5069813;28;20036;-87
2020/12/13 01:45:11;;;;;;;59.10;19.65;;;;;;;;;;5076404;28;20044;-88
2020/12/13 01:47:40;;;;;;;57.22;19.13;;;;;;;;;;5072257;28;20138;-88
2020/12/13 01:50:12;;;;;;;58.63;19.83;;;;;;;;;;5077806;28;20053;-88
2020/12/13 01:52:47;;;;;;;58.45;20.15;;;;;;;;;;5073473;28;20064;-88
2020/12/13 01:55:19;;;;;;;67.63;22.52;;;;;;;;;;5075749;28;20048;-87
2020/12/13 01:57:52;;;;;;;55.47;19.35;;;;;;;;;;5085051;28;20040;-86
2020/12/13 02:00:18;;;;;;;65.75;20.05;;;;;;;;;;5086361;28;20063;-87
2020/12/13 02:02:48;;;;;;;56.30;18.80;;;;;;;;;;5091117;28;20048;-87
2020/12/13 02:05:15;;;;;;;62.00;20.02;;;;;;;;;;5093785;28;20029;-88
2020/12/13 02:07:42;;;;;;;61.78;19.98;;;;;;;;;;5094061;28;20060;-88
2020/12/13 02:10:13;;;;;;;65.28;21.73;;;;;;;;;;5096323;28;20104;-88
2020/12/13 02:12:41;;;;;;;66.80;21.30;;;;;;;;;;5093618;28;20056;-88
2020/12/13 02:18:49;;;;;;;63.75;21.00;;;;;;;;;;5090183;28;20734;-87
2020/12/13 02:21:16;;;;;;;62.35;21.45;;;;;;;;;;5078452;28;20473;-87
2020/12/13 02:23:45;;;;;;;74.03;22.40;;;;;;;;;;5074408;28;20496;-87
2020/12/13 02:26:22;;;;;;;65.63;21.60;;;;;;;;;;5075177;28;20057;-88
2020/12/13 02:28:53;;;;;;;68.35;22.13;;;;;;;;;;5074043;28;20054;-87
2020/12/13 02:31:20;;;;;;;66.07;22.58;;;;;;;;;;5067431;28;20052;-86
2020/12/13 02:33:49;;;;;;;57.33;19.65;;;;;;;;;;5072783;28;20047;-88
2020/12/13 02:36:18;;;;;;;58.90;20.17;;;;;;;;;;5070705;28;20044;-88
2020/12/13 02:38:46;;;;;;;71.45;22.00;;;;;;;;;;5073444;28;20082;-88
2020/12/13 02:41:14;;;;;;;57.95;21.40;;;;;;;;;;5078974;28;20048;-88
2020/12/13 02:43:43;;;;;;;55.38;19.73;;;;;;;;;;5074752;28;20045;-87
2020/12/13 02:46:14;;;;;;;65.80;20.80;;;;;;;;;;5075768;28;20056;-87
2020/12/13 02:48:43;;;;;;;64.90;21.33;;;;;;;;;;5076372;28;20072;-88
2020/12/13 02:51:10;;;;;;;71.07;21.80;;;;;;;;;;5079231;28;20052;-87
2020/12/13 02:53:37;;;;;;;71.95;23.25;;;;;;;;;;5070922;28;20048;-88
2020/12/13 02:56:03;;;;;;;62.55;21.42;;;;;;;;;;5072030;28;20049;-87
2020/12/13 02:58:30;;;;;;;65.47;22.15;;;;;;;;;;5075560;28;20110;-88
2020/12/13 03:00:59;;;;;;;52.80;19.45;;;;;;;;;;5081089;28;20497;-88
2020/12/13 03:03:28;;;;;;;68.38;23.60;;;;;;;;;;5075897;28;20052;-89
2020/12/13 03:06:05;;;;;;;65.65;21.38;;;;;;;;;;5092037;28;20044;-89
2020/12/13 03:08:35;;;;;;;63.65;21.60;;;;;;;;;;5072119;28;20059;-88
2020/12/13 03:11:04;;;;;;;67.82;22.35;;;;;;;;;;5068469;28;20056;-88
2020/12/13 03:13:32;;;;;;;59.15;20.92;;;;;;;;;;5077228;28;20110;-88
2020/12/13 03:16:01;;;;;;;60.33;19.77;;;;;;;;;;5071704;28;20397;-88
2020/12/13 03:18:32;;;;;;;73.15;21.70;;;;;;;;;;5072885;28;20075;-88
2020/12/13 03:21:00;;;;;;;65.53;20.33;;;;;;;;;;5077330;28;20063;-88
2020/12/13 03:23:27;;;;;;;73.07;22.85;;;;;;;;;;5069803;28;20592;-89
2020/12/13 03:25:54;;;;;;;67.03;20.95;;;;;;;;;;5075096;28;20134;-87
2020/12/13 03:28:23;;;;;;;67.47;22.35;;;;;;;;;;5070855;28;20052;-89
2020/12/13 03:30:50;;;;;;;60.67;20.55;;;;;;;;;;5072511;28;20048;-88
2020/12/13 03:33:17;;;;;;;61.08;21.10;;;;;;;;;;5078114;28;20961;-88
2020/12/13 03:35:47;;;;;;;62.92;22.27;;;;;;;;;;5077892;28;20136;-87
2020/12/13 03:38:13;;;;;;;59.90;22.13;;;;;;;;;;5073882;28;20079;-89
2020/12/13 03:40:43;;;;;;;60.92;20.42;;;;;;;;;;5072538;28;20041;-88
2020/12/13 03:43:10;;;;;;;66.15;20.88;;;;;;;;;;5078809;28;20466;-88
2020/12/13 03:45:38;;;;;;;71.90;21.83;;;;;;;;;;5074019;28;20044;-90
2020/12/13 03:48:06;;;;;;;66.90;22.40;;;;;;;;;;5075261;28;20727;-89
2020/12/13 03:50:40;;;;;;;66.07;22.90;;;;;;;;;;5074108;28;20051;-88
2020/12/13 03:53:07;;;;;;;60.75;21.10;;;;;;;;;;5068077;28;20057;-88
2020/12/13 03:55:36;;;;;;;75.63;23.98;;;;;;;;;;5072848;28;20780;-87
2020/12/13 03:58:12;;;;;;;65.45;21.63;;;;;;;;;;5094432;28;20075;-88
2020/12/13 04:00:39;;;;;;;66.00;20.42;;;;;;;;;;5105987;28;20106;-88
2020/12/13 04:03:07;;;;;;;72.03;21.98;;;;;;;;;;5075123;28;20044;-88
2020/12/13 04:05:41;;;;;;;64.25;21.70;;;;;;;;;;5077890;28;20070;-88
2020/12/13 04:08:08;;;;;;;73.85;23.48;;;;;;;;;;5075423;28;20068;-87
2020/12/13 04:10:36;;;;;;;68.68;22.27;;;;;;;;;;5077164;28;20059;-88
2020/12/13 04:13:03;;;;;;;78.75;24.02;;;;;;;;;;5077103;28;20060;-87
2020/12/13 04:15:33;;;;;;;78.78;23.27;;;;;;;;;;5064503;28;20049;-88
2020/12/13 04:18:00;;;;;;;72.40;24.98;;;;;;;;;;5073663;28;20048;-88
2020/12/13 04:20:27;;;;;;;82.43;24.90;;;;;;;;;;5073230;28;20047;-89
2020/12/13 04:22:54;;;;;;;80.07;25.33;;;;;;;;;;5073499;28;20044;-88
2020/12/13 04:25:21;;;;;;;81.85;27.45;;;;;;;;;;5078473;28;20381;-88
2020/12/13 04:27:50;;;;;;;77.10;23.40;;;;;;;;;;5074296;28;20056;-88
2020/12/13 04:30:19;;;;;;;77.30;24.27;;;;;;;;;;5078690;28;20052;-88
2020/12/13 04:32:48;;;;;;;76.00;25.25;;;;;;;;;;5073713;28;20041;-88
2020/12/13 04:35:16;;;;;;;81.35;25.80;;;;;;;;;;5072955;28;20052;-89
2020/12/13 04:37:43;;;;;;;75.97;25.58;;;;;;;;;;5071685;28;20052;-88
2020/12/13 04:40:11;;;;;;;72.32;24.95;;;;;;;;;;5069640;28;20052;-88
2020/12/13 04:42:38;;;;;;;77.53;25.25;;;;;;;;;;5075298;28;20041;-89
2020/12/13 04:45:06;;;;;;;72.93;22.77;;;;;;;;;;5097587;28;20044;-88
2020/12/13 04:47:41;;;;;;;65.40;21.85;;;;;;;;;;5073693;28;20059;-88
2020/12/13 04:50:08;;;;;;;68.38;22.13;;;;;;;;;;5071427;28;20071;-88
2020/12/13 04:52:36;;;;;;;70.35;22.52;;;;;;;;;;5075374;28;20385;-89
2020/12/13 04:55:03;;;;;;;66.97;22.13;;;;;;;;;;5072944;28;20048;-88
2020/12/13 04:57:31;;;;;;;63.70;22.08;;;;;;;;;;5076814;28;20211;-88
2020/12/13 05:00:01;;;;;;;62.05;22.08;;;;;;;;;;5076146;28;20060;-88
2020/12/13 05:02:46;;;;;;;72.72;24.02;;;;;;;;;;5073352;28;20044;-90
2020/12/13 05:05:16;;;;;;;71.93;21.80;;;;;;;;;;5080519;28;20051;-88
2020/12/13 05:07:43;;;;;;;69.47;23.42;;;;;;;;;;5076887;28;20052;-89
2020/12/13 05:10:10;;;;;;;74.68;24.65;;;;;;;;;;5078809;28;20063;-88
2020/12/13 05:12:44;;;;;;;73.07;23.27;;;;;;;;;;5080177;28;20045;-88
2020/12/13 05:15:11;;;;;;;71.38;23.02;;;;;;;;;;5074019;28;20056;-87
2020/12/13 05:17:40;;;;;;;70.82;24.33;;;;;;;;;;5074096;28;20044;-88
2020/12/13 05:20:08;;;;;;;70.00;24.17;;;;;;;;;;5076609;28;20115;-88
2020/12/13 05:22:38;;;;;;;69.22;23.70;;;;;;;;;;5078754;28;20090;-89
2020/12/13 05:25:16;;;;;;;78.55;22.58;;;;;;;;;;5072779;28;20056;-88
2020/12/13 05:27:47;;;;;;;66.38;22.77;;;;;;;;;;5073895;28;20052;-87
2020/12/13 05:30:14;;;;;;;79.47;23.35;;;;;;;;;;5077636;28;20061;-88
2020/12/13 05:32:41;;;;;;;73.63;24.33;;;;;;;;;;5076841;28;20056;-88
2020/12/13 05:35:15;;;;;;;72.40;22.15;;;;;;;;;;5072253;28;20052;-88
2020/12/13 05:37:43;;;;;;;78.15;23.23;;;;;;;;;;5076389;28;20624;-89
2020/12/13 05:40:11;;;;;;;78.45;22.60;;;;;;;;;;5074936;28;20139;-89
2020/12/13 05:42:41;;;;;;;77.00;22.58;;;;;;;;;;5069574;28;20060;-89
2020/12/13 05:45:24;;;;;;;55.05;20.83;;;;;;;;;;5074677;28;20060;-89
2020/12/13 05:50:57;;;;;;;68.80;21.23;;;;;;;;;;5068865;28;19920;-88
2020/12/13 05:53:26;;;;;;;73.72;22.40;;;;;;;;;;5070226;28;20121;-88
2020/12/13 05:56:21;;;;;;;73.33;22.67;;;;;;;;;;5074510;28;20051;-89
2020/12/13 05:58:48;;;;;;;67.20;22.33;;;;;;;;;;5071424;28;20298;-88
2020/12/13 06:01:22;;;;;;;63.33;22.38;;;;;;;;;;5074990;28;20079;-88
2020/12/13 06:03:55;;;;;;;71.43;22.73;;;;;;;;;;5101314;28;20098;-88
2020/12/13 06:06:26;;;;;;;74.25;23.85;;;;;;;;;;5062249;28;20045;-88
2020/12/13 06:09:12;;;;;;;65.45;22.02;;;;;;;;;;5065416;28;20049;-88
2020/12/13 06:11:46;;;;;;;62.28;20.73;;;;;;;;;;5070734;28;20049;-87
2020/12/13 06:14:14;;;;;;;71.70;22.70;;;;;;;;;;5074142;28;20107;-87
2020/12/13 06:16:49;;;;;;;72.05;23.15;;;;;;;;;;5075872;28;20294;-88
2020/12/13 06:19:18;;;;;;;71.60;22.15;;;;;;;;;;5074492;28;20052;-87
2020/12/13 06:22:00;;;;;;;78.68;23.45;;;;;;;;;;5064975;28;20071;-88
2020/12/13 06:24:28;;;;;;;79.68;23.23;;;;;;;;;;5073655;28;20040;-88
2020/12/13 06:26:55;;;;;;;71.47;22.08;;;;;;;;;;5068679;28;20044;-88
2020/12/13 06:29:25;;;;;;;67.13;20.60;;;;;;;;;;5096799;28;20052;-88
2020/12/13 06:31:53;;;;;;;69.68;21.77;;;;;;;;;;5079733;28;20064;-89
2020/12/13 06:34:20;;;;;;;71.28;21.65;;;;;;;;;;5072310;28;20045;-88
2020/12/13 06:36:47;;;;;;;71.43;21.65;;;;;;;;;;5077742;28;20105;-89
2020/12/13 06:39:17;;;;;;;68.88;22.05;;;;;;;;;;5064151;28;20052;-89
2020/12/13 06:41:49;;;;;;;70.35;21.77;;;;;;;;;;5071341;28;20077;-88
2020/12/13 06:44:17;;;;;;;70.18;22.33;;;;;;;;;;5077248;28;20045;-90
2020/12/13 06:46:49;;;;;;;68.80;20.70;;;;;;;;;;5078637;28;20044;-89
2020/12/13 06:49:16;;;;;;;72.63;22.65;;;;;;;;;;5071071;28;20111;-90
2020/12/13 06:51:47;;;;;;;74.43;22.88;;;;;;;;;;5073357;28;20052;-90
2020/12/13 06:54:18;;;;;;;78.10;23.30;;;;;;;;;;5099409;28;20041;-89
2020/12/13 06:56:48;;;;;;;73.15;22.00;;;;;;;;;;5069906;28;20063;-89
2020/12/13 06:59:19;;;;;;;71.47;23.10;;;;;;;;;;5074071;28;20045;-90
2020/12/13 07:01:55;;;;;;;60.08;20.75;;;;;;;;;;5078404;28;20055;-88
2020/12/13 07:04:27;;;;;;;70.53;23.00;;;;;;;;;;5066915;28;20049;-90
2020/12/13 07:09:29;;;;;;;73.43;23.10;;;;;;;;;;5076256;28;20119;-89
2020/12/13 07:12:04;;;;;;;72.80;22.38;;;;;;;;;;5078452;28;20072;-88
2020/12/13 07:14:35;;;;;;;77.38;21.85;;;;;;;;;;5072793;28;20052;-88
2020/12/13 07:17:18;;;;;;;69.95;21.63;;;;;;;;;;5072361;28;20048;-89
2020/12/13 07:19:49;;;;;;;71.78;21.67;;;;;;;;;;5097426;28;20060;-88
2020/12/13 07:22:17;;;;;;;80.25;22.77;;;;;;;;;;5070969;28;20094;-89
2020/12/13 07:24:45;;;;;;;65.90;20.48;;;;;;;;;;5075846;28;20043;-89
2020/12/13 07:27:13;;;;;;;72.75;22.58;;;;;;;;;;5076257;28;20048;-88
2020/12/13 07:29:40;;;;;;;68.28;21.48;;;;;;;;;;5097215;28;20304;-89
2020/12/13 07:32:10;;;;;;;72.22;21.92;;;;;;;;;;5103104;28;20079;-89
2020/12/13 07:34:37;;;;;;;80.55;22.45;;;;;;;;;;5077642;28;20252;-89
2020/12/13 07:37:11;;;;;;;71.55;21.95;;;;;;;;;;5071922;28;20059;-90
2020/12/13 07:39:44;;;;;;;66.78;21.75;;;;;;;;;;5072942;28;20071;-88
2020/12/13 07:42:13;;;;;;;73.95;22.55;;;;;;;;;;5070626;28;20044;-89
2020/12/13 07:44:43;;;;;;;68.70;21.42;;;;;;;;;;5120058;28;20040;-89
2020/12/13 07:47:21;;;;;;;80.10;23.02;;;;;;;;;;5093891;28;20036;-89
2020/12/13 07:49:48;;;;;;;72.97;22.83;;;;;;;;;;5069310;28;20037;-89
2020/12/13 07:52:28;;;;;;;76.43;22.80;;;;;;;;;;5092305;28;20031;-89
2020/12/13 07:55:15;;;;;;;65.85;22.20;;;;;;;;;;5096774;28;20037;-90
2020/12/13 07:57:48;;;;;;;77.20;23.83;;;;;;;;;;5096781;28;20044;-89
2020/12/13 08:00:17;;;;;;;74.90;23.75;;;;;;;;;;5121788;28;20055;-89
2020/12/13 08:02:56;;;;;;;72.20;22.67;;;;;;;;;;5095862;28;20174;-89
2020/12/13 08:05:27;;;;;;;71.57;22.70;;;;;;;;;;5095773;28;20063;-89
2020/12/13 08:08:02;;;;;;;77.30;23.77;;;;;;;;;;5076610;28;20051;-89
2020/12/13 08:10:31;;;;;;;71.80;22.15;;;;;;;;;;5075572;28;20106;-88
2020/12/13 08:13:03;;;;;;;70.80;21.92;;;;;;;;;;5077234;28;20090;-88
2020/12/13 08:15:30;;;;;;;70.93;23.00;;;;;;;;;;5106606;28;20044;-88
2020/12/13 08:18:04;;;;;;;71.40;22.20;;;;;;;;;;5074742;28;20044;-89
2020/12/13 08:20:38;;;;;;;70.32;22.25;;;;;;;;;;5077567;28;20060;-89
2020/12/13 08:23:07;;;;;;;77.07;24.35;;;;;;;;;;5071727;28;20421;-89
2020/12/13 08:25:37;;;;;;;71.60;23.02;;;;;;;;;;5072582;28;20052;-89
2020/12/13 08:28:05;;;;;;;69.55;21.80;;;;;;;;;;5073700;28;20059;-89
2020/12/13 08:30:32;;;;;;;74.53;22.73;;;;;;;;;;5073841;28;20368;-88
2020/12/13 08:32:59;;;;;;;75.65;23.45;;;;;;;;;;5075237;28;20064;-89
2020/12/13 08:35:28;;;;;;;67.75;22.05;;;;;;;;;;5071250;28;20064;-88
2020/12/13 08:37:59;;;;;;;75.57;23.40;;;;;;;;;;5068903;28;20049;-88
2020/12/13 08:40:38;;;;;;;71.18;22.58;;;;;;;;;;5078914;28;20042;-89
2020/12/13 08:43:06;;;;;;;79.82;23.33;;;;;;;;;;5074637;28;20044;-88
2020/12/13 08:45:33;;;;;;;72.45;22.27;;;;;;;;;;5073270;28;20070;-89
2020/12/13 08:48:09;;;;;;;72.15;22.42;;;;;;;;;;5071578;28;20056;-89
2020/12/13 08:50:40;;;;;;;76.00;23.15;;;;;;;;;;5053741;28;20063;-88
2020/12/13 08:53:27;;;;;;;65.38;20.23;;;;;;;;;;5070572;28;20059;-88
2020/12/13 08:56:06;;;;;;;71.22;22.88;;;;;;;;;;5071065;28;20105;-89
2020/12/13 08:58:47;;;;;;;80.75;23.35;;;;;;;;;;5071445;28;20045;-88
2020/12/13 09:01:33;;;;;;;67.25;23.23;;;;;;;;;;5081459;28;20048;-88
2020/12/13 09:04:03;;;;;;;72.43;22.85;;;;;;;;;;5071842;28;20036;-88
2020/12/13 09:06:36;;;;;;;66.40;22.67;;;;;;;;;;5073547;28;20094;-88
2020/12/13 09:09:16;;;;;;;66.95;22.80;;;;;;;;;;5068113;28;20075;-89
2020/12/13 09:11:46;;;;;;;68.75;23.13;;;;;;;;;;5091113;28;20052;-88
2020/12/13 09:14:13;;;;;;;68.93;23.17;;;;;;;;;;5097085;28;20118;-90
2020/12/13 09:16:40;;;;;;;93.20;27.42;;;;;;;;;;5064038;28;20075;-90
2020/12/13 09:19:10;;;;;;;82.05;26.00;;;;;;;;;;5064262;28;20045;-90
2020/12/13 09:22:09;;;;;;;68.90;23.98;;;;;;;;;;5069111;28;20059;-88
2020/12/13 09:24:40;;;;;;;69.57;22.17;;;;;;;;;;5088791;28;20044;-90
2020/12/13 09:27:18;;;;;;;77.78;25.17;;;;;;;;;;5068509;28;20547;-91
2020/12/13 09:29:48;;;;;;;72.13;23.40;;;;;;;;;;5066940;28;20090;-89
2020/12/13 09:32:21;;;;;;;66.78;22.25;;;;;;;;;;5072876;28;20045;-89
2020/12/13 09:34:49;;;;;;;64.85;20.70;;;;;;;;;;5065486;28;20460;-89
2020/12/13 09:37:21;;;;;;;63.33;21.77;;;;;;;;;;5067606;28;20106;-89
2020/12/13 09:39:47;;;;;;;72.82;22.58;;;;;;;;;;5053918;28;20052;-89
2020/12/13 09:42:19;;;;;;;68.18;23.50;;;;;;;;;;5067626;28;20076;-89
2020/12/13 09:44:49;;;;;;;65.97;21.25;;;;;;;;;;5081430;28;21371;-89
2020/12/13 09:47:24;;;;;;;79.60;24.40;;;;;;;;;;5094283;28;20671;-90
2020/12/13 09:49:58;;;;;;;68.88;23.52;;;;;;;;;;5057337;28;20049;-90
2020/12/13 09:52:28;;;;;;;61.67;21.30;;;;;;;;;;5066733;28;20066;-89
2020/12/13 09:54:59;;;;;;;68.03;21.15;;;;;;;;;;5067021;28;20290;-89
2020/12/13 09:57:45;;;;;;;68.82;22.17;;;;;;;;;;5099057;27;20410;-86
2020/12/13 10:00:12;;;;;;;70.47;22.33;;;;;;;;;;5067040;28;20052;-86
2020/12/13 10:02:40;;;;;;;66.28;22.42;;;;;;;;;;5071365;28;20048;-87
2020/12/13 10:05:20;;;;;;;67.05;22.27;;;;;;;;;;5067065;28;20056;-85
2020/12/13 10:10:14;;;;;;;70.45;22.65;;;;;;;;;;5058901;28;20627;-81
2020/12/13 10:12:41;;;;;;;69.70;24.13;;;;;;;;;;5064653;28;20083;-80
2020/12/13 10:15:19;;;;;;;90.00;31.38;;;;;;;;;;5061473;28;20045;-84
2020/12/13 10:17:46;;;;;;;70.32;23.95;;;;;;;;;;5064298;28;20477;-80
2020/12/13 10:20:13;;;;;;;87.25;27.75;;;;;;;;;;5063097;28;20059;-80
2020/12/13 10:22:40;;;;;;;64.90;21.98;;;;;;;;;;5062350;28;20072;-80
2020/12/13 10:25:06;;;;;;;73.18;21.65;;;;;;;;;;5059005;28;20783;-79
2020/12/13 10:27:35;;;;;;;65.25;21.50;;;;;;;;;;5065831;28;20069;-80
2020/12/13 10:30:01;;;;;;;57.72;20.70;;;;;;;;;;5061712;28;20065;-79
2020/12/13 10:32:28;;;;;;;67.80;20.48;;;;;;;;;;5060622;28;20078;-80
2020/12/13 10:34:56;;;;;;;65.60;21.55;;;;;;;;;;5061999;28;20057;-78
2020/12/13 10:37:23;;;;;;;76.47;22.92;;;;;;;;;;5060232;28;20069;-83
2020/12/13 10:39:49;;;;;;;64.07;21.20;;;;;;;;;;5070566;28;20072;-86
2020/12/13 10:42:19;;;;;;;69.38;22.75;;;;;;;;;;5057933;28;20133;-82
2020/12/13 10:44:49;;;;;;;64.15;22.02;;;;;;;;;;5066104;28;20464;-84
2020/12/13 10:47:24;;;;;;;65.10;21.67;;;;;;;;;;5060058;28;20041;-81
2020/12/13 10:49:53;;;;;;;68.15;21.05;;;;;;;;;;5067540;28;20053;-78
2020/12/13 10:52:20;;;;;;;76.38;21.17;;;;;;;;;;5067692;28;20485;-82
2020/12/13 10:58:16;;;;;;;66.93;21.55;;;;;;;;;;5065021;28;20080;-81
2020/12/13 11:00:44;;;;;;;62.03;20.10;;;;;;;;;;5057710;28;20053;-81
2020/12/13 11:03:13;;;;;;;65.07;20.38;;;;;;;;;;5065573;28;20110;-82
2020/12/13 11:05:43;;;;;;;58.38;21.02;;;;;;;;;;5059110;28;20051;-82
2020/12/13 11:08:36;;;;;;;63.45;22.52;;;;;;;;;;5053810;28;20064;-83
2020/12/13 11:11:12;;;;;;;63.33;23.10;;;;;;;;;;5045388;28;20144;-82
2020/12/13 11:13:52;;;;;;;61.40;20.77;;;;;;;;;;5047625;28;20486;-83
2020/12/13 11:16:18;;;;;;;62.95;21.55;;;;;;;;;;5046456;28;20049;-87
2020/12/13 11:18:47;;;;;;;53.15;19.77;;;;;;;;;;5050135;28;20355;-83
2020/12/13 11:21:14;;;;;;;67.82;20.90;;;;;;;;;;5042226;28;20136;-80
2020/12/13 11:23:42;;;;;;;66.38;22.08;;;;;;;;;;5049375;28;20068;-81
2020/12/13 11:26:08;;;;;;;59.65;19.55;;;;;;;;;;5044973;28;20075;-80
2020/12/13 11:28:36;;;;;;;63.15;20.75;;;;;;;;;;5044214;28;20866;-80
2020/12/13 11:31:03;;;;;;;67.53;23.30;;;;;;;;;;5047120;28;20103;-82
2020/12/13 11:33:29;;;;;;;57.08;19.55;;;;;;;;;;5046700;28;20052;-82
2020/12/13 11:35:56;;;;;;;59.28;20.10;;;;;;;;;;5044733;28;20176;-82
2020/12/13 11:38:23;;;;;;;64.22;21.02;;;;;;;;;;5045068;28;20477;-83
2020/12/13 11:40:49;;;;;;;62.17;20.83;;;;;;;;;;5042667;28;20044;-83
2020/12/13 11:43:17;;;;;;;67.85;21.23;;;;;;;;;;5045287;28;20064;-83
2020/12/13 11:45:46;;;;;;;66.18;20.85;;;;;;;;;;5046078;28;20045;-83
2020/12/13 11:48:13;;;;;;;72.38;22.50;;;;;;;;;;5042051;28;20049;-81
2020/12/13 11:50:40;;;;;;;70.97;22.38;;;;;;;;;;5061379;28;20053;-84
2020/12/13 11:53:09;;;;;;;74.43;22.77;;;;;;;;;;5043413;28;20681;-86
2020/12/13 11:55:40;;;;;;;70.05;24.13;;;;;;;;;;5042866;28;20071;-83
2020/12/13 11:58:11;;;;;;;66.63;23.58;;;;;;;;;;5041739;28;20112;-83
2020/12/13 12:00:38;;;;;;;79.32;24.08;;;;;;;;;;5046035;28;20044;-84
2020/12/13 12:03:06;;;;;;;80.72;26.65;;;;;;;;;;5043229;28;20059;-83
2020/12/13 12:05:35;;;;;;;66.70;22.00;;;;;;;;;;5042855;28;20052;-83
2020/12/13 12:08:04;;;;;;;64.65;22.83;;;;;;;;;;5058687;28;20057;-83
2020/12/13 12:10:31;;;;;;;69.43;22.15;;;;;;;;;;5044400;28;20866;-84
2020/12/13 12:13:01;;;;;;;75.07;23.45;;;;;;;;;;5042680;28;20536;-84
2020/12/13 12:15:28;;;;;;;67.13;21.85;;;;;;;;;;5047111;28;20743;-84
2020/12/13 12:17:59;;;;;;;70.63;21.95;;;;;;;;;;5044562;28;20076;-84
2020/12/13 12:20:29;;;;;;;65.45;23.15;;;;;;;;;;5044285;28;20045;-84
2020/12/13 12:22:56;;;;;;;68.55;22.80;;;;;;;;;;5043018;28;20049;-84
2020/12/13 12:25:23;;;;;;;67.28;22.50;;;;;;;;;;5044244;28;20053;-84
2020/12/13 12:27:50;;;;;;;68.10;22.30;;;;;;;;;;5042578;28;20075;-83
2020/12/13 12:30:19;;;;;;;69.70;22.02;;;;;;;;;;5045280;22;20415;-84
2020/12/13 12:32:57;;;;;;;69.07;22.02;;;;;;;;;;5042833;28;20092;-83
2020/12/13 12:35:24;;;;;;;72.78;21.38;;;;;;;;;;5049094;28;20052;-83
2020/12/13 12:37:52;;;;;;;79.00;22.30;;;;;;;;;;5047571;28;20044;-84
2020/12/13 12:40:20;;;;;;;70.85;21.80;;;;;;;;;;5049676;28;21368;-86
2020/12/13 12:42:47;;;;;;;83.28;25.58;;;;;;;;;;5049152;28;20041;-87
2020/12/13 12:45:14;;;;;;;70.40;23.00;;;;;;;;;;5065256;28;20428;-90
2020/12/13 12:47:45;;;;;;;74.05;26.23;;;;;;;;;;5048207;28;20045;-90
2020/12/13 12:50:14;;;;;;;67.18;23.15;;;;;;;;;;5048812;28;20052;-82
2020/12/13 12:52:40;;;;;;;70.95;21.42;;;;;;;;;;5045608;28;20048;-86
2020/12/13 12:55:13;;;;;;;63.95;21.83;;;;;;;;;;5047002;28;20639;-83
2020/12/13 12:57:40;;;;;;;69.93;21.50;;;;;;;;;;5046969;28;20041;-83
2020/12/13 13:02:57;;;;;;;66.93;22.52;;;;;;;;;;5045837;28;20132;-81
2020/12/13 13:05:34;;;;;;;68.03;22.15;;;;;;;;;;5046810;28;20033;-80
2020/12/13 13:08:10;;;;;;;69.57;21.42;;;;;;;;;;5040648;28;20143;-81
2020/12/13 13:10:36;;;;;;;66.57;21.80;;;;;;;;;;5050277;28;20397;-83
2020/12/13 13:13:03;;;;;;;66.53;20.92;;;;;;;;;;5044477;28;20664;-84
2020/12/13 13:18:23;;;;;;;70.03;22.05;;;;;;;;;;5049881;28;20103;-85
2020/12/13 13:20:59;;;;;;;68.05;22.50;;;;;;;;;;5047822;28;20690;-83
2020/12/13 13:23:29;;;;;;;71.68;21.70;;;;;;;;;;5049692;28;20049;-86
2020/12/13 13:26:03;;;;;;;69.40;21.38;;;;;;;;;;5049527;28;20057;-86
2020/12/13 13:28:30;;;;;;;68.05;22.08;;;;;;;;;;5045858;28;20057;-85
2020/12/13 13:30:57;;;;;;;72.25;22.55;;;;;;;;;;5043200;28;20577;-85
2020/12/13 13:33:23;;;;;;;60.78;21.00;;;;;;;;;;5044881;28;20159;-88
2020/12/13 13:35:50;;;;;;;67.15;20.63;;;;;;;;;;5044794;28;20115;-87
2020/12/13 13:38:17;;;;;;;69.85;22.08;;;;;;;;;;5042933;28;20076;-83
2020/12/13 13:40:44;;;;;;;75.75;22.50;;;;;;;;;;5038317;28;20168;-85
2020/12/13 13:43:12;;;;;;;76.03;20.70;;;;;;;;;;5036115;28;20572;-81
2020/12/13 13:51:06;;;;;;;68.43;20.23;;;;;;;;;;5047728;28;20044;-87
2020/12/13 13:53:36;;;;;;;54.55;18.75;;;;;;;;;;5048614;28;20053;-84
2020/12/13 13:56:09;;;;;;;55.22;18.90;;;;;;;;;;5046194;28;20053;-86
2020/12/13 13:58:39;;;;;;;55.25;18.60;;;;;;;;;;5046786;28;20041;-86
2020/12/13 14:01:07;;;;;;;64.38;20.33;;;;;;;;;;5048639;28;20136;-88
2020/12/13 14:03:35;;;;;;;70.35;19.83;;;;;;;;;;5045116;28;20084;-85
2020/12/13 14:06:10;;;;;;;62.03;18.83;;;;;;;;;;5042100;28;20051;-82
2020/12/13 14:08:42;;;;;;;59.53;18.52;;;;;;;;;;5036837;28;20056;-83
2020/12/13 14:11:10;;;;;;;55.75;18.75;;;;;;;;;;5045719;28;20122;-83
2020/12/13 14:13:37;;;;;;;58.45;17.77;;;;;;;;;;5046464;28;20045;-79
2020/12/13 14:16:04;;;;;;;61.15;18.98;;;;;;;;;;5041452;28;20568;-78
2020/12/13 14:18:31;;;;;;;62.42;18.52;;;;;;;;;;5039383;28;20059;-77
2020/12/13 14:20:58;;;;;;;57.17;17.50;;;;;;;;;;5038380;28;20064;-76
2020/12/13 14:23:28;;;;;;;58.53;19.52;;;;;;;;;;5038252;28;20557;-76
2020/12/13 14:25:55;;;;;;;58.33;18.75;;;;;;;;;;5046186;22;20035;-78
2020/12/13 14:28:22;;;;;;;65.57;18.33;;;;;;;;;;5054728;28;20064;-75
2020/12/13 14:30:49;;;;;;;58.03;17.98;;;;;;;;;;5054809;28;20135;-77
2020/12/13 14:33:16;;;;;;;58.28;18.58;;;;;;;;;;5054988;28;20056;-80
2020/12/13 14:35:43;;;;;;;62.17;18.98;;;;;;;;;;5049908;28;20072;-77
2020/12/13 14:38:14;;;;;;;65.10;19.80;;;;;;;;;;5056859;28;20068;-78
2020/12/13 14:40:49;;;;;;;66.78;20.42;;;;;;;;;;5061054;28;20049;-80
2020/12/13 14:43:20;;;;;;;57.15;19.40;;;;;;;;;;5057579;28;20140;-82
2020/12/13 14:45:49;;;;;;;70.20;19.63;;;;;;;;;;5059328;28;20487;-79
2020/12/13 14:48:17;;;;;;;62.85;19.25;;;;;;;;;;5068215;28;20060;-78
2020/12/13 14:50:44;;;;;;;64.43;20.85;;;;;;;;;;5060109;28;20056;-80
2020/12/13 14:53:21;;;;;;;67.43;19.67;;;;;;;;;;5063440;28;20056;-80
2020/12/13 14:55:49;;;;;;;74.22;19.85;;;;;;;;;;5059861;28;20099;-80
2020/12/13 14:58:20;;;;;;;62.92;18.52;;;;;;;;;;5060166;28;20822;-80
2020/12/13 15:00:53;;;;;;;62.35;19.50;;;;;;;;;;5061344;28;20041;-80